Time;durP1;ratioP1;P1;durP2;ratioP2;P2;SDS_P1;SDS_P2;PMS_P1;PMS_P2;Temp;Humidity;BMP_temperature;BMP_pressure;BME280_temperature;BME280_humidity;BME280_pressure;Samples;Min_cycle;Max_cycle;Signal;HPM_P1;HPM_P2
2023/06/08 00:00:50;;;;;;;4.05;3.00;;;16.40;56.60;;;;;;5093231;28;20052;-72
2023/06/08 00:03:18;;;;;;;5.25;2.72;;;16.30;56.60;;;;;;5093264;28;20030;-71
2023/06/08 00:05:49;;;;;;;4.93;2.70;;;16.30;56.80;;;;;;5093115;28;20039;-74
2023/06/08 00:08:15;;;;;;;3.78;2.83;;;16.30;56.90;;;;;;5093145;28;20016;-72
2023/06/08 00:10:42;;;;;;;4.32;3.08;;;16.30;56.80;;;;;;5093105;28;20030;-72
2023/06/08 00:13:08;;;;;;;5.20;3.03;;;16.30;57.00;;;;;;5093327;28;20056;-72
2023/06/08 00:15:33;;;;;;;6.07;3.38;;;16.30;57.20;;;;;;5093045;28;20530;-71
2023/06/08 00:18:00;;;;;;;4.78;3.00;;;16.10;57.40;;;;;;5093081;28;20061;-72
2023/06/08 00:20:26;;;;;;;3.15;2.85;;;16.00;57.80;;;;;;5093070;28;20028;-71
2023/06/08 00:22:52;;;;;;;4.90;3.13;;;16.00;57.90;;;;;;5092683;28;20178;-76
2023/06/08 00:25:17;;;;;;;7.40;3.58;;;16.00;57.70;;;;;;5092879;28;20029;-72
2023/06/08 00:27:43;;;;;;;3.17;2.88;;;15.90;57.90;;;;;;5091751;28;20055;-72
2023/06/08 00:30:09;;;;;;;6.20;3.22;;;15.90;57.90;;;;;;5092922;28;20485;-71
2023/06/08 00:32:34;;;;;;;4.30;2.92;;;16.00;58.00;;;;;;5092975;28;20040;-72
2023/06/08 00:35:00;;;;;;;4.22;3.30;;;15.80;58.30;;;;;;5092667;28;20484;-71
2023/06/08 00:37:25;;;;;;;8.27;3.67;;;15.80;58.90;;;;;;5092899;28;20107;-74
2023/06/08 00:39:51;;;;;;;4.15;3.53;;;15.80;58.70;;;;;;5092783;28;20542;-72
2023/06/08 00:42:17;;;;;;;3.70;2.90;;;15.70;59.00;;;;;;5101511;28;20051;-73
2023/06/08 00:44:43;;;;;;;5.18;3.17;;;15.60;59.70;;;;;;5092913;28;20056;-72
2023/06/08 00:47:09;;;;;;;5.22;3.00;;;15.50;60.20;;;;;;5095462;28;20024;-72
2023/06/08 00:49:34;;;;;;;3.35;3.00;;;15.50;60.20;;;;;;5096880;28;20031;-72
2023/06/08 00:52:01;;;;;;;4.45;3.60;;;15.60;59.80;;;;;;5096798;28;20112;-73
2023/06/08 00:54:30;;;;;;;4.07;3.05;;;15.60;59.30;;;;;;5091443;28;20082;-72
2023/06/08 00:57:00;;;;;;;4.30;3.30;;;15.60;59.50;;;;;;5076425;28;20020;-72
2023/06/08 00:59:29;;;;;;;3.70;2.92;;;15.60;59.30;;;;;;5076140;28;20031;-71
2023/06/08 01:01:57;;;;;;;5.15;3.97;;;15.60;59.50;;;;;;5076098;28;20572;-72
2023/06/08 01:04:23;;;;;;;4.70;3.05;;;15.60;59.50;;;;;;5076143;28;20070;-72
2023/06/08 01:06:53;;;;;;;3.42;3.13;;;15.70;59.50;;;;;;5076118;28;20069;-71
2023/06/08 01:09:48;;;;;;;4.45;3.13;;;15.70;59.40;;;;;;5075926;28;20023;-70
2023/06/08 01:12:33;;;;;;;4.40;3.33;;;15.70;59.40;;;;;;5075964;28;20028;-70
2023/06/08 01:15:10;;;;;;;4.72;3.47;;;15.70;59.60;;;;;;5075910;28;20502;-70
2023/06/08 01:17:44;;;;;;;3.45;3.15;;;15.60;59.30;;;;;;5075517;28;20109;-70
2023/06/08 01:20:29;;;;;;;3.72;3.42;;;15.60;59.40;;;;;;5075908;28;20626;-70
2023/06/08 01:23:10;;;;;;;5.32;3.97;;;15.50;59.60;;;;;;5075750;28;20036;-69
2023/06/08 01:25:36;;;;;;;3.88;3.55;;;15.50;59.80;;;;;;5075800;28;20044;-70
2023/06/08 01:28:12;;;;;;;4.43;3.30;;;15.60;59.70;;;;;;5075461;28;20029;-70
2023/06/08 01:30:48;;;;;;;;;;;15.60;59.60;;;;;;5076399;28;20102;-70
2023/06/08 01:33:22;;;;;;;4.93;3.60;;;15.60;59.60;;;;;;5075675;28;19908;-72
2023/06/08 01:36:30;;;;;;;4.15;3.78;;;15.50;59.70;;;;;;5075611;28;20052;-71
2023/06/08 01:39:20;;;;;;;3.97;3.45;;;15.50;60.00;;;;;;5075464;28;20045;-72
2023/06/08 01:41:49;;;;;;;4.05;3.38;;;15.40;60.00;;;;;;5075565;28;20037;-72
2023/06/08 01:44:18;;;;;;;4.78;3.70;;;15.40;60.30;;;;;;5075465;28;20027;-75
2023/06/08 01:46:50;;;;;;;4.65;3.63;;;15.30;60.30;;;;;;5075368;28;20465;-77
2023/06/08 01:49:17;;;;;;;4.18;3.30;;;15.30;60.50;;;;;;5075353;28;20023;-78
2023/06/08 01:51:42;;;;;;;5.05;3.88;;;15.30;60.50;;;;;;5075453;28;20029;-78
2023/06/08 01:54:08;;;;;;;4.20;3.80;;;15.30;60.60;;;;;;5075301;28;20530;-77
2023/06/08 01:56:35;;;;;;;7.13;3.70;;;15.30;60.70;;;;;;5075373;28;20021;-79
2023/06/08 01:59:01;;;;;;;4.63;3.60;;;15.20;60.60;;;;;;5079803;28;20028;-72
2023/06/08 02:01:27;;;;;;;6.07;3.67;;;15.10;60.60;;;;;;5078271;28;20032;-76
2023/06/08 02:03:52;;;;;;;5.05;3.88;;;15.00;61.10;;;;;;5073698;28;20055;-79
2023/06/08 02:06:18;;;;;;;4.28;3.75;;;15.00;61.30;;;;;;5075127;28;20035;-75
2023/06/08 02:08:43;;;;;;;5.68;4.10;;;15.10;61.20;;;;;;5075172;28;20118;-78
2023/06/08 02:11:10;;;;;;;5.18;3.75;;;15.00;61.30;;;;;;5075113;28;20099;-79
2023/06/08 02:13:40;;;;;;;3.70;3.25;;;14.90;61.20;;;;;;5075033;28;20422;-81
2023/06/08 02:16:06;;;;;;;4.47;3.78;;;14.80;61.50;;;;;;5074891;28;20027;-72
2023/06/08 02:18:34;;;;;;;5.45;3.95;;;14.90;61.30;;;;;;5074717;28;20107;-72
2023/06/08 02:21:01;;;;;;;4.43;3.67;;;14.90;61.50;;;;;;5073512;28;20381;-72
2023/06/08 02:23:26;;;;;;;4.57;3.33;;;14.90;61.60;;;;;;5074782;28;20060;-72
2023/06/08 02:25:52;;;;;;;4.90;3.63;;;15.00;61.50;;;;;;5073298;28;20107;-73
2023/06/08 02:28:17;;;;;;;6.53;3.50;;;15.00;61.20;;;;;;5074634;28;20082;-72
2023/06/08 02:30:43;;;;;;;4.13;3.47;;;15.00;61.20;;;;;;5074443;28;20032;-76
2023/06/08 02:33:08;;;;;;;4.30;3.90;;;15.00;61.20;;;;;;5074724;28;20024;-78
2023/06/08 02:35:36;;;;;;;4.85;3.97;;;14.90;61.40;;;;;;5074515;28;20024;-76
2023/06/08 02:38:01;;;;;;;4.07;3.70;;;15.00;61.40;;;;;;5074362;28;20442;-78
2023/06/08 02:40:27;;;;;;;4.40;3.78;;;14.90;61.40;;;;;;5074636;28;20033;-78
2023/06/08 02:42:52;;;;;;;4.22;3.72;;;15.00;61.20;;;;;;5074109;28;20037;-75
2023/06/08 02:45:18;;;;;;;6.53;3.78;;;14.90;61.30;;;;;;5072964;28;20362;-77
2023/06/08 02:47:43;;;;;;;3.83;3.53;;;14.90;61.30;;;;;;5074119;28;20020;-71
2023/06/08 02:50:09;;;;;;;4.55;3.70;;;14.90;61.40;;;;;;5073841;28;20389;-72
2023/06/08 02:52:34;;;;;;;4.47;3.38;;;15.00;61.10;;;;;;5074118;28;20025;-72
2023/06/08 02:55:00;;;;;;;4.75;2.97;;;15.00;61.00;;;;;;5074148;28;20031;-72
2023/06/08 02:57:25;;;;;;;3.78;3.45;;;15.00;61.10;;;;;;5073984;28;20103;-72
2023/06/08 02:59:52;;;;;;;6.60;5.07;;;15.00;61.10;;;;;;5072736;28;20370;-72
2023/06/08 03:02:18;;;;;;;5.68;5.07;;;14.90;61.40;;;;;;5074084;28;20036;-77
2023/06/08 03:04:44;;;;;;;8.65;6.38;;;14.90;61.40;;;;;;5074064;28;20098;-81
2023/06/08 03:07:17;;;;;;;9.13;7.45;;;14.90;61.50;;;;;;5073995;28;20044;-77
2023/06/08 03:09:43;;;;;;;10.75;8.63;;;14.90;61.20;;;;;;5073784;28;20023;-79
2023/06/08 03:12:12;;;;;;;10.48;8.68;;;14.90;61.20;;;;;;5073883;28;20028;-80
2023/06/08 03:14:40;;;;;;;12.15;8.25;;;14.90;61.30;;;;;;5073808;28;20021;-81
2023/06/08 03:17:07;;;;;;;8.75;6.65;;;14.90;61.30;;;;;;5073791;28;20070;-79
2023/06/08 03:19:32;;;;;;;9.60;7.05;;;14.90;61.10;;;;;;5072334;28;20021;-82
2023/06/08 03:22:04;;;;;;;7.15;6.07;;;14.90;61.10;;;;;;5073476;28;20033;-78
2023/06/08 03:24:32;;;;;;;7.00;5.25;;;14.90;61.00;;;;;;5073720;28;20029;-76
2023/06/08 03:26:58;;;;;;;6.68;5.32;;;14.90;61.00;;;;;;5073695;28;20043;-77
2023/06/08 03:29:25;;;;;;;7.57;6.38;;;14.90;61.00;;;;;;5073518;28;20104;-73
2023/06/08 03:31:51;;;;;;;6.05;5.30;;;14.90;61.20;;;;;;5073676;28;20020;-82
2023/06/08 03:34:17;;;;;;;6.35;4.57;;;14.90;61.30;;;;;;5073381;28;20063;-77
2023/06/08 03:36:43;;;;;;;7.45;4.28;;;14.80;61.40;;;;;;5073423;28;20028;-77
2023/06/08 03:39:09;;;;;;;4.75;3.92;;;14.80;61.40;;;;;;5073060;28;20056;-74
2023/06/08 03:41:35;;;;;;;5.75;4.13;;;14.80;61.50;;;;;;5073030;28;20040;-79
2023/06/08 03:44:01;;;;;;;5.03;3.70;;;14.70;62.20;;;;;;5073339;28;20530;-75
2023/06/08 03:46:27;;;;;;;4.10;3.70;;;14.70;61.70;;;;;;5073262;28;20033;-75
2023/06/08 03:48:52;;;;;;;4.63;3.90;;;14.70;61.40;;;;;;5073241;28;20020;-73
2023/06/08 03:51:22;;;;;;;6.55;4.43;;;14.60;61.70;;;;;;5073222;28;20074;-76
2023/06/08 03:53:49;;;;;;;6.93;4.38;;;14.60;61.50;;;;;;5073162;28;20036;-75
2023/06/08 03:56:15;;;;;;;7.13;4.40;;;14.50;61.70;;;;;;5073086;28;20415;-74
2023/06/08 03:58:44;;;;;;;4.97;4.47;;;14.40;62.00;;;;;;5073193;28;20027;-74
2023/06/08 04:01:10;;;;;;;5.68;4.57;;;14.40;62.50;;;;;;5071696;28;20020;-73
2023/06/08 04:03:36;;;;;;;4.53;4.13;;;14.30;62.90;;;;;;5072985;28;20492;-74
2023/06/08 04:06:03;;;;;;;5.30;4.70;;;14.40;62.70;;;;;;5073013;28;20408;-73
2023/06/08 04:08:31;;;;;;;5.45;4.38;;;14.40;62.60;;;;;;5072852;28;20036;-75
2023/06/08 04:10:57;;;;;;;4.80;4.03;;;14.60;62.30;;;;;;5071720;28;20461;-72
2023/06/08 04:13:23;;;;;;;7.50;4.47;;;14.70;62.10;;;;;;5071687;28;20233;-72
2023/06/08 04:15:48;;;;;;;5.10;4.60;;;14.70;61.70;;;;;;5072929;28;20485;-73
2023/06/08 04:18:14;;;;;;;7.93;4.22;;;14.80;61.10;;;;;;5072931;28;20103;-71
2023/06/08 04:20:40;;;;;;;5.35;4.22;;;14.70;61.50;;;;;;5073015;28;20074;-81
2023/06/08 04:23:05;;;;;;;6.22;4.63;;;14.60;62.50;;;;;;5076829;28;20105;-76
2023/06/08 04:25:31;;;;;;;7.22;4.68;;;14.60;61.60;;;;;;5077007;28;20028;-81
2023/06/08 04:27:56;;;;;;;7.57;4.60;;;14.60;61.80;;;;;;5076902;28;20059;-79
2023/06/08 04:30:22;;;;;;;7.80;4.22;;;14.60;61.60;;;;;;5077040;28;20031;-75
2023/06/08 04:32:47;;;;;;;4.80;4.28;;;14.60;61.80;;;;;;5076864;28;20031;-77
2023/06/08 04:35:13;;;;;;;5.32;4.20;;;14.60;61.80;;;;;;5076785;28;20027;-76
2023/06/08 04:37:41;;;;;;;6.18;4.80;;;14.60;61.50;;;;;;5076579;28;20048;-72
2023/06/08 04:40:09;;;;;;;6.03;3.78;;;14.70;61.40;;;;;;5076589;28;20485;-74
2023/06/08 04:42:39;;;;;;;4.22;3.80;;;14.80;61.30;;;;;;5076617;28;20090;-72
2023/06/08 04:45:07;;;;;;;5.05;3.95;;;14.80;61.20;;;;;;5076688;28;20062;-73
2023/06/08 04:47:36;;;;;;;5.53;4.35;;;14.90;61.40;;;;;;5076620;28;20017;-71
2023/06/08 04:50:02;;;;;;;7.10;4.40;;;15.00;61.90;;;;;;5076578;28;20043;-72
2023/06/08 04:52:30;;;;;;;5.03;3.78;;;15.00;60.20;;;;;;5076638;28;20017;-75
2023/06/08 04:55:01;;;;;;;4.38;3.67;;;15.00;60.10;;;;;;5075130;28;20029;-75
2023/06/08 04:57:26;;;;;;;4.88;3.90;;;14.90;60.70;;;;;;5076561;28;20484;-76
2023/06/08 04:59:52;;;;;;;7.50;3.95;;;14.90;61.40;;;;;;5076533;28;20028;-78
2023/06/08 05:02:18;;;;;;;5.38;3.80;;;14.90;62.30;;;;;;5075175;28;20032;-80
2023/06/08 05:04:44;;;;;;;4.95;3.63;;;14.90;62.40;;;;;;5076451;28;20029;-80
2023/06/08 05:07:10;;;;;;;4.32;3.83;;;15.00;61.60;;;;;;5086031;28;20044;-72
2023/06/08 05:09:35;;;;;;;5.07;3.95;;;15.10;60.70;;;;;;5079836;28;20052;-72
2023/06/08 05:12:01;;;;;;;4.53;3.85;;;15.30;60.40;;;;;;5076235;28;20052;-71
2023/06/08 05:14:26;;;;;;;7.45;3.78;;;15.40;59.70;;;;;;5076151;28;20078;-77
2023/06/08 05:16:52;;;;;;;6.13;4.28;;;15.50;59.60;;;;;;5076194;28;20504;-73
2023/06/08 05:19:17;;;;;;;4.18;3.70;;;15.60;59.60;;;;;;5076032;28;20035;-72
2023/06/08 05:21:43;;;;;;;4.20;3.80;;;15.60;59.50;;;;;;5075930;28;20028;-72
2023/06/08 05:24:09;;;;;;;5.88;3.97;;;15.70;59.50;;;;;;5074863;28;20025;-76
2023/06/08 05:26:34;;;;;;;4.47;3.65;;;15.70;59.20;;;;;;5075954;28;20032;-77
2023/06/08 05:29:01;;;;;;;5.13;3.63;;;15.80;58.90;;;;;;5076063;28;20024;-77
2023/06/08 05:31:27;;;;;;;4.07;3.67;;;15.80;58.90;;;;;;5075810;28;20025;-80
2023/06/08 05:33:52;;;;;;;5.40;3.60;;;16.00;58.90;;;;;;5075655;28;20028;-81
2023/06/08 05:36:18;;;;;;;6.80;3.72;;;16.10;58.90;;;;;;5075740;28;20038;-80
2023/06/08 05:38:44;;;;;;;3.90;3.50;;;16.20;58.60;;;;;;5075595;28;20123;-78
2023/06/08 05:41:09;;;;;;;6.93;3.72;;;16.20;58.40;;;;;;5075563;28;20465;-78
2023/06/08 05:43:35;;;;;;;6.00;4.10;;;16.40;58.10;;;;;;5075565;28;20028;-74
2023/06/08 05:46:00;;;;;;;4.78;3.47;;;16.60;57.80;;;;;;5075477;28;20484;-72
2023/06/08 05:48:26;;;;;;;5.55;4.38;;;16.70;56.90;;;;;;5074130;28;20436;-75
2023/06/08 05:50:51;;;;;;;6.47;4.40;;;16.90;56.50;;;;;;5074171;28;20112;-75
2023/06/08 05:53:17;;;;;;;6.35;4.20;;;17.00;56.30;;;;;;5075515;28;20473;-72
2023/06/08 05:55:43;;;;;;;5.70;4.25;;;16.90;56.50;;;;;;5075523;28;20116;-74
2023/06/08 05:58:09;;;;;;;4.50;3.80;;;16.90;57.10;;;;;;5075189;28;20373;-73
2023/06/08 06:00:35;;;;;;;3.67;3.38;;;16.90;56.60;;;;;;5075276;28;20034;-73
2023/06/08 06:03:00;;;;;;;4.30;3.80;;;17.00;56.50;;;;;;5075243;28;20465;-71
2023/06/08 06:05:26;;;;;;;6.35;3.85;;;17.10;56.30;;;;;;5075598;28;20025;-72
2023/06/08 06:07:51;;;;;;;4.65;3.20;;;17.20;56.20;;;;;;5075363;28;20028;-71
2023/06/08 06:10:17;;;;;;;3.72;3.33;;;17.40;55.90;;;;;;5075106;28;20032;-82
2023/06/08 06:12:42;;;;;;;6.72;3.40;;;17.60;55.50;;;;;;5075335;28;20492;-79
2023/06/08 06:15:08;;;;;;;5.97;3.20;;;17.80;55.00;;;;;;5076677;28;20065;-83
2023/06/08 06:17:34;;;;;;;3.40;3.10;;;18.00;54.70;;;;;;5076096;28;20025;-73
2023/06/08 06:20:00;;;;;;;4.20;3.78;;;18.10;54.00;;;;;;5075946;28;20028;-79
2023/06/08 06:22:26;;;;;;;4.40;3.30;;;18.30;53.40;;;;;;5076010;28;20498;-77
2023/06/08 06:24:51;;;;;;;4.65;3.20;;;18.40;52.60;;;;;;5074212;28;20603;-78
2023/06/08 06:27:18;;;;;;;6.80;3.67;;;18.60;52.00;;;;;;5075243;28;20113;-78
2023/06/08 06:29:44;;;;;;;4.65;3.80;;;18.60;52.00;;;;;;5077468;28;20043;-80
2023/06/08 06:32:09;;;;;;;7.43;4.20;;;18.60;52.30;;;;;;5078487;28;20024;-82
2023/06/08 06:34:35;;;;;;;4.43;4.00;;;18.60;53.20;;;;;;5076846;28;20477;-83
2023/06/08 06:37:00;;;;;;;5.43;4.15;;;18.60;53.40;;;;;;5075048;28;20025;-81
2023/06/08 06:39:27;;;;;;;6.60;4.32;;;18.70;53.10;;;;;;5073244;28;20045;-79
2023/06/08 06:41:52;;;;;;;7.07;4.18;;;18.40;54.10;;;;;;5074747;28;20021;-79
2023/06/08 06:44:18;;;;;;;6.05;4.05;;;18.30;54.90;;;;;;5074287;28;20040;-76
2023/06/08 06:46:43;;;;;;;6.18;4.18;;;18.30;54.80;;;;;;5074455;28;20023;-76
2023/06/08 06:49:09;;;;;;;4.72;3.90;;;18.40;55.00;;;;;;5074593;28;20384;-77
2023/06/08 06:51:36;;;;;;;5.00;4.20;;;18.60;53.50;;;;;;5074634;28;20031;-75
2023/06/08 06:54:02;;;;;;;5.43;4.10;;;18.70;52.60;;;;;;5075235;28;20031;-74
2023/06/08 06:56:27;;;;;;;4.88;3.90;;;18.90;53.50;;;;;;5075848;28;20385;-78
2023/06/08 06:58:53;;;;;;;4.13;3.72;;;19.10;54.40;;;;;;5075792;28;20074;-72
2023/06/08 07:01:19;;;;;;;5.60;3.75;;;19.20;54.50;;;;;;5081365;28;20024;-72
2023/06/08 07:03:46;;;;;;;4.68;3.88;;;19.40;54.00;;;;;;5075632;28;20111;-75
2023/06/08 07:06:13;;;;;;;5.22;4.65;;;19.50;53.80;;;;;;5074864;28;20047;-71
2023/06/08 07:08:39;;;;;;;5.47;3.92;;;19.70;53.60;;;;;;5072962;28;20055;-72
2023/06/08 07:11:05;;;;;;;4.13;3.53;;;19.80;53.20;;;;;;5072949;28;20477;-73
2023/06/08 07:13:31;;;;;;;4.68;3.70;;;19.90;52.20;;;;;;5074105;28;20028;-72
2023/06/08 07:15:57;;;;;;;6.80;3.53;;;20.10;50.90;;;;;;5075118;28;20477;-74
2023/06/08 07:18:23;;;;;;;4.68;3.45;;;20.30;50.70;;;;;;5074856;28;20071;-73
2023/06/08 07:20:49;;;;;;;3.80;3.20;;;20.30;50.40;;;;;;5074488;28;20032;-72
2023/06/08 07:23:15;;;;;;;5.47;3.97;;;20.40;50.30;;;;;;5075052;28;20032;-72
2023/06/08 07:25:41;;;;;;;5.20;3.75;;;20.50;49.40;;;;;;5073126;28;20055;-72
2023/06/08 07:28:08;;;;;;;7.55;3.75;;;20.60;48.70;;;;;;5074095;28;20024;-75
2023/06/08 07:30:34;;;;;;;5.25;3.80;;;20.70;48.80;;;;;;5074001;28;20361;-77
2023/06/08 07:33:00;;;;;;;4.55;3.50;;;20.90;48.20;;;;;;5074025;28;20431;-71
2023/06/08 07:35:26;;;;;;;5.07;3.95;;;20.90;49.20;;;;;;5074605;28;20051;-71
2023/06/08 07:37:52;;;;;;;5.22;3.58;;;21.10;49.80;;;;;;5072702;28;20024;-72
2023/06/08 07:40:18;;;;;;;4.95;4.22;;;21.10;49.80;;;;;;5073799;28;20123;-73
2023/06/08 07:42:44;;;;;;;4.35;3.92;;;21.00;50.00;;;;;;5074601;28;20041;-71
2023/06/08 07:45:13;;;;;;;4.47;3.70;;;21.10;50.40;;;;;;5074983;28;20472;-83
2023/06/08 07:47:41;;;;;;;4.18;3.45;;;21.20;50.70;;;;;;5076552;28;20064;-80
2023/06/08 07:50:07;;;;;;;12.75;3.78;;;21.10;50.60;;;;;;5074092;28;20048;-74
2023/06/08 07:52:33;;;;;;;18.10;3.72;;;21.30;50.70;;;;;;5072596;28;20035;-75
2023/06/08 07:54:58;;;;;;;5.45;3.50;;;21.60;51.80;;;;;;5073972;28;20028;-73
2023/06/08 07:57:24;;;;;;;6.80;4.45;;;21.90;50.80;;;;;;5073131;28;20025;-74
2023/06/08 07:59:50;;;;;;;5.13;3.33;;;22.10;48.50;;;;;;5073706;28;20027;-75
2023/06/08 08:02:16;;;;;;;6.22;4.07;;;22.20;47.40;;;;;;5073869;28;20485;-77
2023/06/08 08:04:41;;;;;;;6.28;3.50;;;22.30;47.90;;;;;;5074518;28;20027;-77
2023/06/08 08:07:07;;;;;;;5.50;3.47;;;22.50;47.40;;;;;;5076153;28;20469;-78
2023/06/08 08:09:32;;;;;;;5.00;3.45;;;22.60;46.40;;;;;;5072120;28;20024;-77
2023/06/08 08:11:58;;;;;;;5.80;2.85;;;22.90;47.10;;;;;;5073276;28;20378;-76
2023/06/08 08:14:23;;;;;;;7.32;3.70;;;23.20;46.10;;;;;;5073281;28;20191;-76
2023/06/08 08:16:50;;;;;;;7.70;3.65;;;23.40;44.80;;;;;;5073001;28;20029;-75
2023/06/08 08:19:16;;;;;;;3.47;3.17;;;23.70;43.90;;;;;;5072790;28;20028;-76
2023/06/08 08:21:41;;;;;;;5.47;4.10;;;23.80;42.30;;;;;;5072393;28;20481;-77
2023/06/08 08:24:07;;;;;;;6.40;3.83;;;24.10;42.10;;;;;;5073012;28;20020;-76
2023/06/08 08:26:34;;;;;;;5.30;3.70;;;24.20;41.40;;;;;;5071667;28;20518;-76
2023/06/08 08:28:59;;;;;;;4.38;3.90;;;24.40;40.80;;;;;;5072952;28;20108;-76
2023/06/08 08:31:25;;;;;;;4.43;3.80;;;24.50;39.50;;;;;;5072793;28;20064;-76
2023/06/08 08:33:51;;;;;;;3.83;3.50;;;24.60;39.30;;;;;;5072928;28;20021;-76
2023/06/08 08:36:17;;;;;;;5.45;3.97;;;24.90;39.10;;;;;;5072843;28;20028;-76
2023/06/08 08:38:43;;;;;;;3.63;3.33;;;25.00;38.10;;;;;;5072772;28;20048;-74
2023/06/08 08:41:12;;;;;;;4.70;3.40;;;25.00;38.00;;;;;;5072609;28;20021;-75
2023/06/08 08:43:56;;;;;;;4.32;3.28;;;25.10;38.10;;;;;;5072657;28;20040;-73
2023/06/08 08:46:23;;;;;;;4.90;3.30;;;25.10;38.10;;;;;;5072565;28;20024;-76
2023/06/08 08:48:53;;;;;;;5.03;3.35;;;25.20;38.20;;;;;;5072675;28;20427;-76
2023/06/08 08:51:19;;;;;;;4.60;3.30;;;25.20;38.40;;;;;;5072515;28;20025;-76
2023/06/08 08:53:49;;;;;;;4.18;3.33;;;25.30;37.40;;;;;;5072587;28;20385;-75
2023/06/08 08:56:22;;;;;;;4.00;3.60;;;25.40;37.30;;;;;;5072694;28;20055;-76
2023/06/08 08:58:50;;;;;;;4.22;3.53;;;25.50;36.10;;;;;;5072425;28;20031;-77
2023/06/08 09:01:17;;;;;;;5.20;3.63;;;25.50;35.80;;;;;;5072226;28;20020;-75
2023/06/08 09:03:43;;;;;;;7.28;4.25;;;25.60;36.00;;;;;;5072669;28;20074;-73
2023/06/08 09:06:08;;;;;;;7.95;4.32;;;25.50;34.10;;;;;;5071092;28;20020;-76
2023/06/08 09:08:34;;;;;;;5.88;4.20;;;25.40;34.70;;;;;;5075687;28;20028;-73
2023/06/08 09:11:04;;;;;;;5.18;4.05;;;25.40;35.50;;;;;;5076165;28;20033;-75
2023/06/08 09:13:30;;;;;;;3.90;3.50;;;25.50;35.10;;;;;;5074946;28;20115;-74
2023/06/08 09:15:56;;;;;;;4.55;3.63;;;25.50;34.90;;;;;;5076304;28;20078;-75
2023/06/08 09:18:25;;;;;;;6.10;3.53;;;25.50;33.80;;;;;;5074988;28;20107;-75
2023/06/08 09:20:51;;;;;;;3.45;3.15;;;25.50;34.50;;;;;;5075995;28;20052;-74
2023/06/08 09:23:26;;;;;;;4.80;3.60;;;25.40;34.50;;;;;;5074738;28;20033;-74
2023/06/08 09:25:55;;;;;;;5.05;4.28;;;25.10;35.00;;;;;;5076016;28;20036;-75
2023/06/08 09:28:24;;;;;;;5.95;4.18;;;24.90;35.20;;;;;;5074540;28;20091;-74
2023/06/08 09:30:51;;;;;;;11.85;4.40;;;24.60;35.30;;;;;;5074665;28;20031;-75
2023/06/08 09:33:29;;;;;;;9.35;5.28;;;24.00;37.90;;;;;;5075928;28;20017;-74
2023/06/08 09:35:57;;;;;;;8.35;4.85;;;23.40;40.90;;;;;;5075759;28;20029;-74
2023/06/08 09:38:25;;;;;;;6.28;4.32;;;22.90;42.80;;;;;;5075518;28;20048;-79
2023/06/08 09:40:51;;;;;;;6.70;4.90;;;22.60;44.10;;;;;;5074553;28;20035;-78
2023/06/08 09:43:33;;;;;;;9.65;5.55;;;22.30;47.20;;;;;;5074374;28;20493;-80
2023/06/08 09:45:59;;;;;;;6.28;4.75;;;22.10;45.90;;;;;;5075723;28;20033;-77
2023/06/08 09:48:25;;;;;;;9.00;4.78;;;21.80;49.30;;;;;;5075693;28;20031;-79
2023/06/08 09:50:58;;;;;;;16.33;6.10;;;21.80;51.20;;;;;;5075500;28;20060;-76
2023/06/08 09:53:25;;;;;;;15.30;6.85;;;21.40;54.60;;;;;;5075575;28;20078;-74
2023/06/08 09:55:53;;;;;;;16.50;7.72;;;20.50;59.30;;;;;;5075423;28;20067;-77
2023/06/08 09:58:22;;;;;;;18.50;7.72;;;19.50;61.80;;;;;;5075274;28;20056;-73
2023/06/08 10:00:48;;;;;;;15.07;7.05;;;18.80;63.10;;;;;;5075124;28;20469;-77
2023/06/08 10:03:22;;;;;;;13.10;6.18;;;18.60;65.00;;;;;;5075138;28;20119;-78
2023/06/08 10:05:48;;;;;;;5.60;4.82;;;18.70;63.90;;;;;;5074201;28;20358;-79
2023/06/08 10:08:21;;;;;;;13.98;6.20;;;18.90;60.30;;;;;;5075293;28;20500;-72
2023/06/08 10:10:47;;;;;;;12.80;6.78;;;19.00;63.40;;;;;;5075250;28;20020;-75
2023/06/08 10:13:14;;;;;;;8.52;5.40;;;19.00;64.70;;;;;;5075075;28;20027;-76
2023/06/08 10:15:41;;;;;;;6.63;5.25;;;19.20;64.90;;;;;;5075223;28;20033;-79
2023/06/08 10:18:08;;;;;;;17.63;10.57;;;19.40;63.80;;;;;;5074798;28;20013;-75
2023/06/08 10:20:35;;;;;;;15.32;8.60;;;19.60;61.50;;;;;;5074735;28;20036;-78
2023/06/08 10:23:02;;;;;;;14.95;10.38;;;19.80;60.00;;;;;;5074950;28;20420;-75
2023/06/08 10:25:30;;;;;;;17.75;11.80;;;19.90;60.30;;;;;;5074443;28;20031;-82
2023/06/08 10:28:02;;;;;;;7.93;5.72;;;20.00;60.70;;;;;;5074743;28;20039;-76
2023/06/08 10:30:42;;;;;;;7.93;5.38;;;19.90;58.40;;;;;;5075413;28;20025;-78
2023/06/08 10:33:21;;;;;;;7.45;5.00;;;20.00;57.20;;;;;;5075661;28;20477;-77
2023/06/08 10:36:21;;;;;;;7.97;5.40;;;20.20;57.90;;;;;;5074836;28;20534;-73
2023/06/08 10:38:54;;;;;;;9.85;5.30;;;20.20;59.40;;;;;;5039914;28;20047;-79
2023/06/08 10:41:40;;;;;;;8.48;5.30;;;20.40;59.00;;;;;;5074280;28;20481;-82
2023/06/08 10:44:25;;;;;;;13.65;5.57;;;20.50;57.70;;;;;;5074607;28;20389;-79
2023/06/08 10:47:12;;;;;;;9.00;4.93;;;20.80;56.50;;;;;;5074519;28;20034;-81
2023/06/08 10:49:39;;;;;;;7.68;5.20;;;20.90;55.10;;;;;;5074454;28;20090;-82
2023/06/08 10:52:07;;;;;;;6.93;4.90;;;20.90;55.40;;;;;;5074418;28;20031;-81
2023/06/08 10:54:51;;;;;;;6.03;4.88;;;21.10;56.90;;;;;;5074178;28;20439;-80
2023/06/08 10:57:45;;;;;;;9.93;4.82;;;21.30;57.80;;;;;;5074415;28;20074;-78
2023/06/08 11:00:26;;;;;;;8.23;5.53;;;21.50;56.90;;;;;;5074168;28;20025;-80
2023/06/08 11:02:57;;;;;;;7.20;4.90;;;21.50;52.20;;;;;;5074233;28;20362;-81
2023/06/08 11:05:23;;;;;;;6.60;4.55;;;21.60;50.80;;;;;;5073937;28;20032;-79
2023/06/08 11:07:52;;;;;;;8.98;5.03;;;21.50;50.70;;;;;;5074096;28;20035;-80
2023/06/08 11:10:20;;;;;;;6.60;4.40;;;21.50;52.10;;;;;;5074060;28;20024;-81
2023/06/08 11:12:46;;;;;;;7.00;4.88;;;21.70;51.50;;;;;;5072818;28;20078;-76
2023/06/08 11:15:11;;;;;;;6.72;5.28;;;22.00;51.80;;;;;;5073780;28;20197;-76
2023/06/08 11:17:45;;;;;;;6.50;4.88;;;22.20;52.10;;;;;;5073738;28;20066;-74
2023/06/08 11:20:13;;;;;;;7.10;5.20;;;22.20;53.40;;;;;;5074021;28;20032;-78
2023/06/08 11:22:39;;;;;;;6.18;4.55;;;22.30;54.30;;;;;;5073753;28;20029;-79
2023/06/08 11:25:07;;;;;;;13.77;5.75;;;22.40;53.40;;;;;;5073602;28;20021;-80
2023/06/08 11:27:33;;;;;;;5.65;4.43;;;22.50;53.70;;;;;;5073700;28;20024;-77
2023/06/08 11:29:59;;;;;;;7.07;4.65;;;22.70;52.70;;;;;;5071937;28;20020;-78
2023/06/08 11:32:26;;;;;;;5.82;4.38;;;23.10;53.40;;;;;;5073710;28;20025;-75
2023/06/08 11:34:53;;;;;;;11.25;8.50;;;23.70;52.50;;;;;;5073656;28;20032;-74
2023/06/08 11:37:18;;;;;;;7.70;5.25;;;24.20;51.00;;;;;;5073537;28;20126;-79
2023/06/08 11:39:44;;;;;;;6.55;5.28;;;24.50;48.80;;;;;;5073491;28;20517;-79
2023/06/08 11:42:10;;;;;;;4.50;3.70;;;24.90;49.90;;;;;;5073563;28;20029;-78
2023/06/08 11:44:36;;;;;;;6.95;3.63;;;25.10;45.30;;;;;;5073788;28;20032;-77
2023/06/08 11:47:03;;;;;;;4.65;3.17;;;25.30;41.70;;;;;;5074229;28;20024;-76
2023/06/08 11:49:55;;;;;;;3.38;3.08;;;25.50;38.70;;;;;;5075783;28;20115;-75
2023/06/08 11:52:27;;;;;;;5.28;2.90;;;25.60;36.30;;;;;;5082748;28;20032;-74
2023/06/08 11:54:55;;;;;;;4.07;2.70;;;25.60;35.40;;;;;;5084596;28;20082;-76
2023/06/08 11:57:21;;;;;;;2.90;2.70;;;25.70;34.70;;;;;;5079286;28;20031;-79
2023/06/08 11:59:47;;;;;;;3.00;2.70;;;25.80;35.20;;;;;;5074443;28;20020;-78
2023/06/08 12:02:13;;;;;;;2.83;2.63;;;25.90;34.10;;;;;;5072339;28;20036;-76
2023/06/08 12:04:40;;;;;;;2.17;2.05;;;26.00;33.60;;;;;;5072181;28;20024;-75
2023/06/08 12:07:10;;;;;;;2.97;2.65;;;26.10;33.00;;;;;;5073125;28;20546;-80
2023/06/08 12:09:46;;;;;;;2.40;2.20;;;26.20;32.70;;;;;;5071849;28;20031;-78
2023/06/08 12:12:12;;;;;;;2.60;2.10;;;26.40;30.90;;;;;;5073289;28;20584;-80
2023/06/08 12:14:48;;;;;;;2.60;2.35;;;26.60;29.70;;;;;;5072421;28;20028;-76
2023/06/08 12:17:15;;;;;;;2.78;2.08;;;26.80;29.50;;;;;;5073092;28;20024;-72
2023/06/08 12:19:45;;;;;;;5.28;2.90;;;27.00;29.90;;;;;;5071776;28;20028;-79
2023/06/08 12:22:12;;;;;;;4.13;3.05;;;27.20;30.90;;;;;;5073014;28;20142;-74
2023/06/08 12:24:38;;;;;;;2.72;2.15;;;27.50;30.10;;;;;;5072879;28;20024;-75
2023/06/08 12:27:06;;;;;;;3.30;2.28;;;27.80;29.50;;;;;;5072722;28;20020;-76
2023/06/08 12:29:32;;;;;;;3.13;2.22;;;28.00;27.10;;;;;;5072896;28;20036;-76
2023/06/08 12:31:59;;;;;;;3.10;2.80;;;28.10;25.40;;;;;;5071438;28;20025;-76
2023/06/08 12:34:25;;;;;;;4.82;2.80;;;28.20;24.90;;;;;;5073123;28;20057;-76
2023/06/08 12:36:50;;;;;;;9.70;7.35;;;28.20;24.10;;;;;;5072774;28;20055;-76
2023/06/08 12:39:16;;;;;;;4.63;2.80;;;28.20;22.80;;;;;;5071364;28;20432;-77
2023/06/08 12:41:41;;;;;;;4.90;4.10;;;28.40;21.20;;;;;;5072921;28;20031;-76
2023/06/08 12:44:08;;;;;;;3.20;2.80;;;28.50;21.40;;;;;;5075561;28;20111;-77
2023/06/08 12:46:33;;;;;;;4.45;3.33;;;28.60;21.00;;;;;;5076790;28;20028;-80
2023/06/08 12:48:59;;;;;;;4.18;2.95;;;28.50;20.80;;;;;;5076697;28;20020;-81